sensor_id;sensor_type;location;lat;lon;timestamp;temperature;humidity
23717;DHT22;22094;52.130;5.598;2022-11-15T00:01:50;7.00;99.90
23717;DHT22;22094;52.130;5.598;2022-11-15T00:04:16;7.10;99.90
23717;DHT22;22094;52.130;5.598;2022-11-15T00:06:41;7.10;99.90
23717;DHT22;22094;52.130;5.598;2022-11-15T00:09:07;7.00;99.90
23717;DHT22;22094;52.130;5.598;2022-11-15T00:11:33;7.00;99.90
23717;DHT22;22094;52.130;5.598;2022-11-15T00:13:58;7.10;99.90
23717;DHT22;22094;52.130;5.598;2022-11-15T00:16:24;7.10;99.90
23717;DHT22;22094;52.130;5.598;2022-11-15T00:18:50;7.20;99.90
23717;DHT22;22094;52.130;5.598;2022-11-15T00:21:17;7.20;99.90
23717;DHT22;22094;52.130;5.598;2022-11-15T00:23:43;7.20;99.90
23717;DHT22;22094;52.130;5.598;2022-11-15T00:26:13;7.20;99.90
23717;DHT22;22094;52.130;5.598;2022-11-15T00:28:39;7.20;99.90
23717;DHT22;22094;52.130;5.598;2022-11-15T00:31:08;7.20;99.90
23717;DHT22;22094;52.130;5.598;2022-11-15T00:33:34;7.20;99.90
23717;DHT22;22094;52.130;5.598;2022-11-15T00:36:01;7.30;99.90
23717;DHT22;22094;52.130;5.598;2022-11-15T00:38:33;7.40;99.90
23717;DHT22;22094;52.130;5.598;2022-11-15T00:40:59;7.30;99.90
23717;DHT22;22094;52.130;5.598;2022-11-15T00:43:25;7.30;99.90
23717;DHT22;22094;52.130;5.598;2022-11-15T00:45:51;7.40;99.90
23717;DHT22;22094;52.130;5.598;2022-11-15T00:48:16;7.40;99.90
23717;DHT22;22094;52.130;5.598;2022-11-15T00:50:42;7.40;99.90
23717;DHT22;22094;52.130;5.598;2022-11-15T00:53:07;7.40;99.90
23717;DHT22;22094;52.130;5.598;2022-11-15T00:55:33;7.50;99.90
23717;DHT22;22094;52.130;5.598;2022-11-15T00:57:58;7.60;99.90
23717;DHT22;22094;52.130;5.598;2022-11-15T01:00:24;7.50;99.90
23717;DHT22;22094;52.130;5.598;2022-11-15T01:02:49;7.50;99.90
23717;DHT22;22094;52.130;5.598;2022-11-15T01:05:15;7.60;99.90
23717;DHT22;22094;52.130;5.598;2022-11-15T01:07:41;7.60;99.90
23717;DHT22;22094;52.130;5.598;2022-11-15T01:10:08;7.60;99.90
23717;DHT22;22094;52.130;5.598;2022-11-15T01:12:33;7.60;99.90
23717;DHT22;22094;52.130;5.598;2022-11-15T01:14:59;7.70;99.90
23717;DHT22;22094;52.130;5.598;2022-11-15T01:17:24;7.60;99.90
23717;DHT22;22094;52.130;5.598;2022-11-15T01:19:50;7.70;99.90
23717;DHT22;22094;52.130;5.598;2022-11-15T01:22:16;7.70;99.90
23717;DHT22;22094;52.130;5.598;2022-11-15T01:24:41;7.70;99.90
23717;DHT22;22094;52.130;5.598;2022-11-15T01:27:07;7.70;99.90
23717;DHT22;22094;52.130;5.598;2022-11-15T01:29:32;7.70;99.90
23717;DHT22;22094;52.130;5.598;2022-11-15T01:31:58;7.60;99.90
23717;DHT22;22094;52.130;5.598;2022-11-15T01:34:23;7.70;99.90
23717;DHT22;22094;52.130;5.598;2022-11-15T01:36:49;7.80;99.90
23717;DHT22;22094;52.130;5.598;2022-11-15T01:39:15;7.80;99.90
23717;DHT22;22094;52.130;5.598;2022-11-15T01:41:41;7.90;99.90
23717;DHT22;22094;52.130;5.598;2022-11-15T01:47:03;7.90;99.90
23717;DHT22;22094;52.130;5.598;2022-11-15T01:49:33;7.90;99.90
23717;DHT22;22094;52.130;5.598;2022-11-15T01:52:00;7.90;99.90
23717;DHT22;22094;52.130;5.598;2022-11-15T01:54:26;7.90;99.90
23717;DHT22;22094;52.130;5.598;2022-11-15T01:56:57;7.90;99.90
23717;DHT22;22094;52.130;5.598;2022-11-15T01:59:24;7.90;99.90
23717;DHT22;22094;52.130;5.598;2022-11-15T02:01:51;8.00;99.90
23717;DHT22;22094;52.130;5.598;2022-11-15T02:04:28;8.00;99.90
23717;DHT22;22094;52.130;5.598;2022-11-15T02:06:54;8.00;99.90
23717;DHT22;22094;52.130;5.598;2022-11-15T02:09:20;8.10;99.90
23717;DHT22;22094;52.130;5.598;2022-11-15T02:11:46;8.10;99.90
23717;DHT22;22094;52.130;5.598;2022-11-15T02:14:13;8.30;99.90
23717;DHT22;22094;52.130;5.598;2022-11-15T02:25:08;8.20;99.90
23717;DHT22;22094;52.130;5.598;2022-11-15T02:30:43;8.30;99.90
23717;DHT22;22094;52.130;5.598;2022-11-15T02:33:16;8.40;99.90
23717;DHT22;22094;52.130;5.598;2022-11-15T02:36:05;8.40;99.90
23717;DHT22;22094;52.130;5.598;2022-11-15T02:38:53;8.40;99.90
23717;DHT22;22094;52.130;5.598;2022-11-15T02:41:47;8.40;99.90
23717;DHT22;22094;52.130;5.598;2022-11-15T02:44:30;8.60;99.90
23717;DHT22;22094;52.130;5.598;2022-11-15T02:47:04;8.60;99.90
23717;DHT22;22094;52.130;5.598;2022-11-15T02:49:46;8.60;99.90
23717;DHT22;22094;52.130;5.598;2022-11-15T02:52:16;8.50;99.90
23717;DHT22;22094;52.130;5.598;2022-11-15T02:54:42;8.60;99.90
23717;DHT22;22094;52.130;5.598;2022-11-15T02:57:15;8.60;99.90
23717;DHT22;22094;52.130;5.598;2022-11-15T03:00:04;8.90;99.90
23717;DHT22;22094;52.130;5.598;2022-11-15T03:03:03;8.70;99.90
23717;DHT22;22094;52.130;5.598;2022-11-15T03:05:46;8.80;99.90
23717;DHT22;22094;52.130;5.598;2022-11-15T03:08:18;8.70;99.90
23717;DHT22;22094;52.130;5.598;2022-11-15T03:11:07;8.80;99.90
23717;DHT22;22094;52.130;5.598;2022-11-15T03:13:47;8.90;99.90
23717;DHT22;22094;52.130;5.598;2022-11-15T03:16:20;9.00;99.90
23717;DHT22;22094;52.130;5.598;2022-11-15T03:19:04;9.00;99.90
23717;DHT22;22094;52.130;5.598;2022-11-15T03:21:33;9.00;99.90
23717;DHT22;22094;52.130;5.598;2022-11-15T03:24:03;9.10;99.90
23717;DHT22;22094;52.130;5.598;2022-11-15T03:26:32;9.20;99.90
23717;DHT22;22094;52.130;5.598;2022-11-15T03:29:04;9.20;99.90
23717;DHT22;22094;52.130;5.598;2022-11-15T03:31:34;9.40;99.90
23717;DHT22;22094;52.130;5.598;2022-11-15T03:36:45;9.20;99.90
23717;DHT22;22094;52.130;5.598;2022-11-15T03:39:13;9.30;99.90
23717;DHT22;22094;52.130;5.598;2022-11-15T03:47:14;9.30;99.90
23717;DHT22;22094;52.130;5.598;2022-11-15T03:49:46;9.40;99.90
23717;DHT22;22094;52.130;5.598;2022-11-15T03:52:17;9.50;99.90
23717;DHT22;22094;52.130;5.598;2022-11-15T03:54:49;9.40;99.90
23717;DHT22;22094;52.130;5.598;2022-11-15T03:57:15;9.80;99.90
23717;DHT22;22094;52.130;5.598;2022-11-15T03:59:40;9.50;99.90
23717;DHT22;22094;52.130;5.598;2022-11-15T04:02:06;9.60;99.90
23717;DHT22;22094;52.130;5.598;2022-11-15T04:04:31;9.60;99.90
23717;DHT22;22094;52.130;5.598;2022-11-15T04:06:57;9.80;99.90
23717;DHT22;22094;52.130;5.598;2022-11-15T04:09:23;9.80;99.90
23717;DHT22;22094;52.130;5.598;2022-11-15T04:11:48;9.70;99.90
23717;DHT22;22094;52.130;5.598;2022-11-15T04:14:14;9.80;99.90
23717;DHT22;22094;52.130;5.598;2022-11-15T04:16:39;9.80;99.90
23717;DHT22;22094;52.130;5.598;2022-11-15T04:19:05;9.90;99.90
23717;DHT22;22094;52.130;5.598;2022-11-15T04:21:49;9.90;99.90
23717;DHT22;22094;52.130;5.598;2022-11-15T04:24:33;9.80;99.90
23717;DHT22;22094;52.130;5.598;2022-11-15T04:26:58;10.00;99.90
23717;DHT22;22094;52.130;5.598;2022-11-15T04:29:25;10.10;99.90
23717;DHT22;22094;52.130;5.598;2022-11-15T04:32:04;10.10;99.90
23717;DHT22;22094;52.130;5.598;2022-11-15T04:34:30;10.10;99.90
23717;DHT22;22094;52.130;5.598;2022-11-15T04:36:55;10.20;99.90
23717;DHT22;22094;52.130;5.598;2022-11-15T04:39:42;10.10;99.90
23717;DHT22;22094;52.130;5.598;2022-11-15T04:42:09;10.00;99.90
23717;DHT22;22094;52.130;5.598;2022-11-15T04:44:35;10.20;99.90
23717;DHT22;22094;52.130;5.598;2022-11-15T04:47:01;10.10;99.90
23717;DHT22;22094;52.130;5.598;2022-11-15T04:49:26;10.10;99.90
23717;DHT22;22094;52.130;5.598;2022-11-15T04:51:52;10.40;99.90
23717;DHT22;22094;52.130;5.598;2022-11-15T04:54:17;10.10;99.90
23717;DHT22;22094;52.130;5.598;2022-11-15T04:56:43;10.10;99.90
23717;DHT22;22094;52.130;5.598;2022-11-15T04:59:08;10.20;99.90
23717;DHT22;22094;52.130;5.598;2022-11-15T05:01:34;10.10;99.90
23717;DHT22;22094;52.130;5.598;2022-11-15T05:04:00;10.20;99.90
23717;DHT22;22094;52.130;5.598;2022-11-15T05:06:44;10.20;99.90
23717;DHT22;22094;52.130;5.598;2022-11-15T05:09:09;10.10;99.90
23717;DHT22;22094;52.130;5.598;2022-11-15T05:11:35;10.20;99.90
23717;DHT22;22094;52.130;5.598;2022-11-15T05:14:01;10.30;99.90
23717;DHT22;22094;52.130;5.598;2022-11-15T05:16:26;10.30;99.90
23717;DHT22;22094;52.130;5.598;2022-11-15T05:18:53;10.30;99.90
23717;DHT22;22094;52.130;5.598;2022-11-15T05:21:19;10.30;99.90
23717;DHT22;22094;52.130;5.598;2022-11-15T05:23:45;10.20;99.90
23717;DHT22;22094;52.130;5.598;2022-11-15T05:26:11;10.30;99.90
23717;DHT22;22094;52.130;5.598;2022-11-15T05:28:37;10.30;99.90
23717;DHT22;22094;52.130;5.598;2022-11-15T05:31:11;10.30;99.90
23717;DHT22;22094;52.130;5.598;2022-11-15T05:33:48;10.20;99.90
23717;DHT22;22094;52.130;5.598;2022-11-15T05:36:41;10.30;99.90
23717;DHT22;22094;52.130;5.598;2022-11-15T05:39:08;10.20;99.90
23717;DHT22;22094;52.130;5.598;2022-11-15T05:41:38;10.30;99.90
23717;DHT22;22094;52.130;5.598;2022-11-15T05:44:10;10.70;99.90
23717;DHT22;22094;52.130;5.598;2022-11-15T05:46:37;10.30;99.90
23717;DHT22;22094;52.130;5.598;2022-11-15T05:49:07;10.40;99.90
23717;DHT22;22094;52.130;5.598;2022-11-15T05:51:34;10.40;99.90
23717;DHT22;22094;52.130;5.598;2022-11-15T05:54:00;10.40;99.90
23717;DHT22;22094;52.130;5.598;2022-11-15T05:56:29;10.50;99.90
23717;DHT22;22094;52.130;5.598;2022-11-15T05:58:55;10.70;99.90
23717;DHT22;22094;52.130;5.598;2022-11-15T06:01:22;10.50;99.90
23717;DHT22;22094;52.130;5.598;2022-11-15T06:03:48;10.50;99.90
23717;DHT22;22094;52.130;5.598;2022-11-15T06:06:14;10.60;99.90
23717;DHT22;22094;52.130;5.598;2022-11-15T06:08:39;10.70;99.90
23717;DHT22;22094;52.130;5.598;2022-11-15T06:11:06;10.70;99.90
23717;DHT22;22094;52.130;5.598;2022-11-15T06:13:32;10.90;99.90
23717;DHT22;22094;52.130;5.598;2022-11-15T06:15:58;10.70;99.90
23717;DHT22;22094;52.130;5.598;2022-11-15T06:18:23;10.70;99.90
23717;DHT22;22094;52.130;5.598;2022-11-15T06:20:49;10.60;99.90
23717;DHT22;22094;52.130;5.598;2022-11-15T06:23:15;10.70;99.90
23717;DHT22;22094;52.130;5.598;2022-11-15T06:25:40;10.90;99.90
23717;DHT22;22094;52.130;5.598;2022-11-15T06:28:06;10.70;99.90
23717;DHT22;22094;52.130;5.598;2022-11-15T06:30:32;10.80;99.90
23717;DHT22;22094;52.130;5.598;2022-11-15T06:33:02;10.80;99.90
23717;DHT22;22094;52.130;5.598;2022-11-15T06:35:29;10.80;99.90
23717;DHT22;22094;52.130;5.598;2022-11-15T06:37:55;10.80;99.90
23717;DHT22;22094;52.130;5.598;2022-11-15T06:40:21;10.70;99.90
23717;DHT22;22094;52.130;5.598;2022-11-15T06:42:47;10.80;99.90
23717;DHT22;22094;52.130;5.598;2022-11-15T06:45:12;10.80;99.90
23717;DHT22;22094;52.130;5.598;2022-11-15T06:47:45;10.80;99.90
23717;DHT22;22094;52.130;5.598;2022-11-15T06:50:12;10.90;99.90
23717;DHT22;22094;52.130;5.598;2022-11-15T06:52:38;10.90;99.90
23717;DHT22;22094;52.130;5.598;2022-11-15T06:55:04;10.90;99.90
23717;DHT22;22094;52.130;5.598;2022-11-15T06:57:29;10.90;99.90
23717;DHT22;22094;52.130;5.598;2022-11-15T06:59:55;10.90;99.90
23717;DHT22;22094;52.130;5.598;2022-11-15T07:02:20;10.80;99.90
23717;DHT22;22094;52.130;5.598;2022-11-15T07:04:46;10.90;99.90
23717;DHT22;22094;52.130;5.598;2022-11-15T07:07:11;10.80;99.90
23717;DHT22;22094;52.130;5.598;2022-11-15T07:09:37;10.80;99.90
23717;DHT22;22094;52.130;5.598;2022-11-15T07:12:03;10.80;99.90
23717;DHT22;22094;52.130;5.598;2022-11-15T07:14:28;10.90;99.90
23717;DHT22;22094;52.130;5.598;2022-11-15T07:16:54;10.90;99.90
23717;DHT22;22094;52.130;5.598;2022-11-15T07:19:19;10.90;99.90
23717;DHT22;22094;52.130;5.598;2022-11-15T07:21:45;10.90;99.90
23717;DHT22;22094;52.130;5.598;2022-11-15T07:24:10;11.10;99.90
23717;DHT22;22094;52.130;5.598;2022-11-15T07:26:36;11.10;99.90
23717;DHT22;22094;52.130;5.598;2022-11-15T07:29:01;11.00;99.90
23717;DHT22;22094;52.130;5.598;2022-11-15T07:31:27;11.00;99.90
23717;DHT22;22094;52.130;5.598;2022-11-15T07:33:53;11.00;99.90
23717;DHT22;22094;52.130;5.598;2022-11-15T07:36:18;11.00;99.90
23717;DHT22;22094;52.130;5.598;2022-11-15T07:38:44;11.00;99.90
23717;DHT22;22094;52.130;5.598;2022-11-15T07:41:09;11.10;99.90
23717;DHT22;22094;52.130;5.598;2022-11-15T07:43:35;11.00;99.90
23717;DHT22;22094;52.130;5.598;2022-11-15T07:46:05;11.00;99.90
23717;DHT22;22094;52.130;5.598;2022-11-15T07:48:37;11.10;99.90
23717;DHT22;22094;52.130;5.598;2022-11-15T07:51:05;11.10;99.90
23717;DHT22;22094;52.130;5.598;2022-11-15T07:53:31;11.10;99.90
23717;DHT22;22094;52.130;5.598;2022-11-15T07:55:57;11.10;99.90
23717;DHT22;22094;52.130;5.598;2022-11-15T07:58:22;11.10;99.90
23717;DHT22;22094;52.130;5.598;2022-11-15T08:00:48;11.20;99.90
23717;DHT22;22094;52.130;5.598;2022-11-15T08:03:17;11.10;99.90
23717;DHT22;22094;52.130;5.598;2022-11-15T08:05:43;11.10;99.90
23717;DHT22;22094;52.130;5.598;2022-11-15T08:08:10;11.20;99.90
23717;DHT22;22094;52.130;5.598;2022-11-15T08:10:36;11.00;99.90
23717;DHT22;22094;52.130;5.598;2022-11-15T08:13:05;11.50;99.90
23717;DHT22;22094;52.130;5.598;2022-11-15T08:15:32;11.00;99.90
23717;DHT22;22094;52.130;5.598;2022-11-15T08:18:01;11.00;99.90
23717;DHT22;22094;52.130;5.598;2022-11-15T08:20:29;11.00;99.90
23717;DHT22;22094;52.130;5.598;2022-11-15T08:22:56;11.10;99.90
23717;DHT22;22094;52.130;5.598;2022-11-15T08:25:23;11.00;99.90
23717;DHT22;22094;52.130;5.598;2022-11-15T08:27:54;11.10;99.90
23717;DHT22;22094;52.130;5.598;2022-11-15T08:32:50;11.20;99.90
23717;DHT22;22094;52.130;5.598;2022-11-15T08:35:16;11.10;99.90
23717;DHT22;22094;52.130;5.598;2022-11-15T08:37:42;11.20;99.90
23717;DHT22;22094;52.130;5.598;2022-11-15T08:40:08;9.00;99.90
23717;DHT22;22094;52.130;5.598;2022-11-15T08:45:00;11.80;99.90
23717;DHT22;22094;52.130;5.598;2022-11-15T08:47:26;11.40;99.90
23717;DHT22;22094;52.130;5.598;2022-11-15T08:49:52;11.40;99.90
23717;DHT22;22094;52.130;5.598;2022-11-15T08:52:17;11.50;99.90
23717;DHT22;22094;52.130;5.598;2022-11-15T08:54:43;11.60;99.90
23717;DHT22;22094;52.130;5.598;2022-11-15T08:57:08;11.60;99.90
23717;DHT22;22094;52.130;5.598;2022-11-15T08:59:35;15.10;99.90
23717;DHT22;22094;52.130;5.598;2022-11-15T09:02:01;11.60;99.90
23717;DHT22;22094;52.130;5.598;2022-11-15T09:04:26;11.60;99.90
23717;DHT22;22094;52.130;5.598;2022-11-15T09:06:52;11.60;99.90
23717;DHT22;22094;52.130;5.598;2022-11-15T09:09:17;11.70;99.90
23717;DHT22;22094;52.130;5.598;2022-11-15T09:11:43;11.60;99.90
23717;DHT22;22094;52.130;5.598;2022-11-15T09:14:11;11.70;99.90
23717;DHT22;22094;52.130;5.598;2022-11-15T09:16:37;11.90;99.90
23717;DHT22;22094;52.130;5.598;2022-11-15T09:19:03;11.80;99.90
23717;DHT22;22094;52.130;5.598;2022-11-15T09:23:55;12.10;99.90
23717;DHT22;22094;52.130;5.598;2022-11-15T09:26:20;12.10;99.90
23717;DHT22;22094;52.130;5.598;2022-11-15T09:28:46;12.50;99.90
23717;DHT22;22094;52.130;5.598;2022-11-15T09:31:12;13.60;99.90
23717;DHT22;22094;52.130;5.598;2022-11-15T09:33:37;12.00;99.90
23717;DHT22;22094;52.130;5.598;2022-11-15T09:36:05;12.10;99.90
23717;DHT22;22094;52.130;5.598;2022-11-15T09:38:32;12.10;99.90
23717;DHT22;22094;52.130;5.598;2022-11-15T09:41:50;12.60;99.90
23717;DHT22;22094;52.130;5.598;2022-11-15T09:44:20;12.20;99.90
23717;DHT22;22094;52.130;5.598;2022-11-15T09:49:18;12.40;99.90
23717;DHT22;22094;52.130;5.598;2022-11-15T09:51:47;14.70;99.90
23717;DHT22;22094;52.130;5.598;2022-11-15T09:54:31;12.30;99.90
23717;DHT22;22094;52.130;5.598;2022-11-15T09:57:15;12.40;99.90
23717;DHT22;22094;52.130;5.598;2022-11-15T10:02:43;12.30;99.90
23717;DHT22;22094;52.130;5.598;2022-11-15T10:05:15;13.80;99.90
23717;DHT22;22094;52.130;5.598;2022-11-15T10:10:39;12.60;99.90
23717;DHT22;22094;52.130;5.598;2022-11-15T10:15:46;12.40;99.90
23717;DHT22;22094;52.130;5.598;2022-11-15T10:18:17;12.50;99.90
23717;DHT22;22094;52.130;5.598;2022-11-15T10:20:50;12.30;99.90
23717;DHT22;22094;52.130;5.598;2022-11-15T10:23:21;12.20;99.90
23717;DHT22;22094;52.130;5.598;2022-11-15T10:25:48;12.40;99.90
23717;DHT22;22094;52.130;5.598;2022-11-15T10:30:49;12.40;99.90
23717;DHT22;22094;52.130;5.598;2022-11-15T10:35:44;12.50;99.90
23717;DHT22;22094;52.130;5.598;2022-11-15T10:38:11;12.70;99.90
23717;DHT22;22094;52.130;5.598;2022-11-15T10:40:38;12.70;99.90
23717;DHT22;22094;52.130;5.598;2022-11-15T10:50:39;12.70;99.90
23717;DHT22;22094;52.130;5.598;2022-11-15T10:53:29;13.90;99.90
23717;DHT22;22094;52.130;5.598;2022-11-15T10:56:00;12.70;99.90
23717;DHT22;22094;52.130;5.598;2022-11-15T10:58:37;12.50;99.90
23717;DHT22;22094;52.130;5.598;2022-11-15T11:01:11;12.40;99.90
23717;DHT22;22094;52.130;5.598;2022-11-15T11:03:38;12.80;99.90
23717;DHT22;22094;52.130;5.598;2022-11-15T11:06:07;12.60;99.90
23717;DHT22;22094;52.130;5.598;2022-11-15T11:08:33;9.90;99.90
23717;DHT22;22094;52.130;5.598;2022-11-15T11:11:00;14.70;99.90
23717;DHT22;22094;52.130;5.598;2022-11-15T11:13:28;14.00;99.90
23717;DHT22;22094;52.130;5.598;2022-11-15T11:35:23;13.20;99.90
23717;DHT22;22094;52.130;5.598;2022-11-15T11:37:59;13.60;99.90
23717;DHT22;22094;52.130;5.598;2022-11-15T11:40:43;12.20;99.90
23717;DHT22;22094;52.130;5.598;2022-11-15T11:43:34;14.10;99.90
23717;DHT22;22094;52.130;5.598;2022-11-15T11:49:08;12.90;99.90
23717;DHT22;22094;52.130;5.598;2022-11-15T11:51:46;13.00;99.90
23717;DHT22;22094;52.130;5.598;2022-11-15T11:56:44;14.50;99.90
23717;DHT22;22094;52.130;5.598;2022-11-15T11:59:23;13.20;99.90
23717;DHT22;22094;52.130;5.598;2022-11-15T12:01:51;14.60;99.90
23717;DHT22;22094;52.130;5.598;2022-11-15T12:04:39;16.00;99.90
23717;DHT22;22094;52.130;5.598;2022-11-15T12:09:46;14.30;99.90
23717;DHT22;22094;52.130;5.598;2022-11-15T12:12:24;12.40;99.90
23717;DHT22;22094;52.130;5.598;2022-11-15T12:15:11;13.40;99.90
23717;DHT22;22094;52.130;5.598;2022-11-15T12:17:40;14.80;99.90
23717;DHT22;22094;52.130;5.598;2022-11-15T12:20:22;13.70;99.90
23717;DHT22;22094;52.130;5.598;2022-11-15T12:23:17;14.50;99.90
23717;DHT22;22094;52.130;5.598;2022-11-15T12:25:55;13.20;99.90
23717;DHT22;22094;52.130;5.598;2022-11-15T12:28:35;13.20;99.90
23717;DHT22;22094;52.130;5.598;2022-11-15T12:31:17;12.70;99.90
23717;DHT22;22094;52.130;5.598;2022-11-15T12:33:46;12.40;99.90
23717;DHT22;22094;52.130;5.598;2022-11-15T12:39:03;13.20;99.90
23717;DHT22;22094;52.130;5.598;2022-11-15T12:41:34;12.20;99.90
23717;DHT22;22094;52.130;5.598;2022-11-15T12:59:52;13.20;99.90
23717;DHT22;22094;52.130;5.598;2022-11-15T13:02:25;13.50;99.90
23717;DHT22;22094;52.130;5.598;2022-11-15T13:04:54;13.80;99.90
23717;DHT22;22094;52.130;5.598;2022-11-15T13:10:28;13.30;99.90
23717;DHT22;22094;52.130;5.598;2022-11-15T13:31:03;13.40;
23717;DHT22;22094;52.130;5.598;2022-11-15T13:33:39;13.30;99.90
23717;DHT22;22094;52.130;5.598;2022-11-15T13:38:54;12.10;99.90
23717;DHT22;22094;52.130;5.598;2022-11-15T13:41:31;13.00;99.90
23717;DHT22;22094;52.130;5.598;2022-11-15T13:43:59;13.80;99.90
23717;DHT22;22094;52.130;5.598;2022-11-15T13:46:32;13.00;99.90
23717;DHT22;22094;52.130;5.598;2022-11-15T13:49:01;13.00;99.90
23717;DHT22;22094;52.130;5.598;2022-11-15T13:56:52;14.10;99.90
23717;DHT22;22094;52.130;5.598;2022-11-15T13:59:25;13.40;99.90
23717;DHT22;22094;52.130;5.598;2022-11-15T14:01:52;14.60;99.90
23717;DHT22;22094;52.130;5.598;2022-11-15T14:04:21;12.70;99.90
23717;DHT22;22094;52.130;5.598;2022-11-15T14:06:56;12.60;99.90
23717;DHT22;22094;52.130;5.598;2022-11-15T14:09:32;12.30;99.90
23717;DHT22;22094;52.130;5.598;2022-11-15T14:12:00;13.90;99.90
23717;DHT22;22094;52.130;5.598;2022-11-15T14:14:28;13.10;99.90
23717;DHT22;22094;52.130;5.598;2022-11-15T14:16:59;12.50;99.90
23717;DHT22;22094;52.130;5.598;2022-11-15T14:22:11;12.60;99.90
23717;DHT22;22094;52.130;5.598;2022-11-15T14:29:46;12.20;99.90
23717;DHT22;22094;52.130;5.598;2022-11-15T14:32:20;12.20;99.90
23717;DHT22;22094;52.130;5.598;2022-11-15T14:39:49;12.20;99.90
23717;DHT22;22094;52.130;5.598;2022-11-15T14:42:14;12.30;99.90
23717;DHT22;22094;52.130;5.598;2022-11-15T14:44:40;12.20;99.90
23717;DHT22;22094;52.130;5.598;2022-11-15T14:47:06;12.20;99.90
23717;DHT22;22094;52.130;5.598;2022-11-15T14:49:31;12.20;99.90
23717;DHT22;22094;52.130;5.598;2022-11-15T14:51:57;12.00;99.90
23717;DHT22;22094;52.130;5.598;2022-11-15T14:54:22;14.00;99.90
23717;DHT22;22094;52.130;5.598;2022-11-15T14:56:48;12.20;99.90
23717;DHT22;22094;52.130;5.598;2022-11-15T15:01:39;12.20;99.90
23717;DHT22;22094;52.130;5.598;2022-11-15T15:04:05;12.50;99.90
23717;DHT22;22094;52.130;5.598;2022-11-15T15:06:30;12.10;99.90
23717;DHT22;22094;52.130;5.598;2022-11-15T15:08:56;12.10;99.90
23717;DHT22;22094;52.130;5.598;2022-11-15T15:11:27;12.10;99.90
23717;DHT22;22094;52.130;5.598;2022-11-15T15:13:53;12.10;99.90
23717;DHT22;22094;52.130;5.598;2022-11-15T15:16:22;12.00;99.90
23717;DHT22;22094;52.130;5.598;2022-11-15T15:18:48;12.00;99.90
23717;DHT22;22094;52.130;5.598;2022-11-15T15:21:20;12.00;99.90
23717;DHT22;22094;52.130;5.598;2022-11-15T15:23:47;12.00;99.90
23717;DHT22;22094;52.130;5.598;2022-11-15T15:26:12;12.00;99.90
23717;DHT22;22094;52.130;5.598;2022-11-15T15:28:38;12.00;99.90
23717;DHT22;22094;52.130;5.598;2022-11-15T15:31:04;12.00;99.90
23717;DHT22;22094;52.130;5.598;2022-11-15T15:33:31;12.00;99.90
23717;DHT22;22094;52.130;5.598;2022-11-15T15:35:57;12.00;99.90
23717;DHT22;22094;52.130;5.598;2022-11-15T15:38:22;12.10;99.90
23717;DHT22;22094;52.130;5.598;2022-11-15T15:40:48;12.00;99.90
23717;DHT22;22094;52.130;5.598;2022-11-15T15:43:13;12.00;99.90
23717;DHT22;22094;52.130;5.598;2022-11-15T15:45:40;12.00;99.90
23717;DHT22;22094;52.130;5.598;2022-11-15T15:48:11;11.90;99.90
23717;DHT22;22094;52.130;5.598;2022-11-15T15:50:37;11.90;99.90
23717;DHT22;22094;52.130;5.598;2022-11-15T15:53:04;11.90;99.90
23717;DHT22;22094;52.130;5.598;2022-11-15T15:55:30;11.90;99.90
23717;DHT22;22094;52.130;5.598;2022-11-15T15:57:56;11.90;99.90
23717;DHT22;22094;52.130;5.598;2022-11-15T16:00:23;11.90;99.90
23717;DHT22;22094;52.130;5.598;2022-11-15T16:02:50;11.80;99.90
23717;DHT22;22094;52.130;5.598;2022-11-15T16:05:16;11.90;99.90
23717;DHT22;22094;52.130;5.598;2022-11-15T16:07:43;11.90;99.90
23717;DHT22;22094;52.130;5.598;2022-11-15T16:12:43;12.00;99.90
23717;DHT22;22094;52.130;5.598;2022-11-15T16:15:09;12.00;99.90
23717;DHT22;22094;52.130;5.598;2022-11-15T16:17:38;12.00;99.90
23717;DHT22;22094;52.130;5.598;2022-11-15T16:20:05;12.10;99.90
23717;DHT22;22094;52.130;5.598;2022-11-15T16:22:31;12.10;99.90
23717;DHT22;22094;52.130;5.598;2022-11-15T16:24:56;12.10;99.90
23717;DHT22;22094;52.130;5.598;2022-11-15T16:27:22;12.10;99.90
23717;DHT22;22094;52.130;5.598;2022-11-15T16:29:48;12.10;99.90
23717;DHT22;22094;52.130;5.598;2022-11-15T16:32:15;12.10;99.90
23717;DHT22;22094;52.130;5.598;2022-11-15T16:34:41;12.10;99.90
23717;DHT22;22094;52.130;5.598;2022-11-15T16:37:21;12.10;99.90
23717;DHT22;22094;52.130;5.598;2022-11-15T16:39:47;12.20;99.90
23717;DHT22;22094;52.130;5.598;2022-11-15T16:42:12;12.20;99.90
23717;DHT22;22094;52.130;5.598;2022-11-15T16:44:38;12.20;99.90
23717;DHT22;22094;52.130;5.598;2022-11-15T16:47:03;12.20;99.90
23717;DHT22;22094;52.130;5.598;2022-11-15T16:49:29;12.20;99.90
23717;DHT22;22094;52.130;5.598;2022-11-15T16:51:54;12.20;99.90
23717;DHT22;22094;52.130;5.598;2022-11-15T16:54:20;12.10;99.90
23717;DHT22;22094;52.130;5.598;2022-11-15T16:56:45;12.10;99.90
23717;DHT22;22094;52.130;5.598;2022-11-15T16:59:16;12.20;99.90
23717;DHT22;22094;52.130;5.598;2022-11-15T17:01:42;12.20;99.90
23717;DHT22;22094;52.130;5.598;2022-11-15T17:04:16;12.10;99.90
23717;DHT22;22094;52.130;5.598;2022-11-15T17:06:44;12.10;99.90
23717;DHT22;22094;52.130;5.598;2022-11-15T17:09:20;12.20;99.90
23717;DHT22;22094;52.130;5.598;2022-11-15T17:11:48;12.20;99.90
23717;DHT22;22094;52.130;5.598;2022-11-15T17:14:15;12.30;99.90
23717;DHT22;22094;52.130;5.598;2022-11-15T17:16:41;12.20;99.90
23717;DHT22;22094;52.130;5.598;2022-11-15T17:19:19;12.20;99.90
23717;DHT22;22094;52.130;5.598;2022-11-15T17:21:46;12.10;99.90
23717;DHT22;22094;52.130;5.598;2022-11-15T17:24:13;12.10;99.90
23717;DHT22;22094;52.130;5.598;2022-11-15T17:26:39;12.00;99.90
23717;DHT22;22094;52.130;5.598;2022-11-15T17:29:04;12.00;99.90
23717;DHT22;22094;52.130;5.598;2022-11-15T17:31:33;12.00;99.90
23717;DHT22;22094;52.130;5.598;2022-11-15T17:34:03;11.90;99.90
23717;DHT22;22094;52.130;5.598;2022-11-15T17:36:29;11.80;99.90
23717;DHT22;22094;52.130;5.598;2022-11-15T17:38:55;11.70;99.90
23717;DHT22;22094;52.130;5.598;2022-11-15T17:41:21;11.80;99.90
23717;DHT22;22094;52.130;5.598;2022-11-15T17:43:47;11.70;99.90
23717;DHT22;22094;52.130;5.598;2022-11-15T17:46:15;11.70;99.90
23717;DHT22;22094;52.130;5.598;2022-11-15T17:48:42;11.80;99.90
23717;DHT22;22094;52.130;5.598;2022-11-15T17:51:10;11.60;99.90
23717;DHT22;22094;52.130;5.598;2022-11-15T17:53:39;11.60;99.90
23717;DHT22;22094;52.130;5.598;2022-11-15T17:56:10;11.60;99.90
23717;DHT22;22094;52.130;5.598;2022-11-15T17:58:37;11.60;99.90
23717;DHT22;22094;52.130;5.598;2022-11-15T18:01:06;11.50;99.90
23717;DHT22;22094;52.130;5.598;2022-11-15T18:03:36;11.50;99.90
23717;DHT22;22094;52.130;5.598;2022-11-15T18:06:04;11.50;99.90
23717;DHT22;22094;52.130;5.598;2022-11-15T18:08:30;11.50;99.90
23717;DHT22;22094;52.130;5.598;2022-11-15T18:11:06;11.80;99.90
23717;DHT22;22094;52.130;5.598;2022-11-15T18:13:34;11.60;99.90